Time;durP1;ratioP1;P1;durP2;ratioP2;P2;SDS_P1;SDS_P2;PMS_P1;PMS_P2;Temp;Humidity;BMP_temperature;BMP_pressure;BME280_temperature;BME280_humidity;BME280_pressure;Samples;Min_cycle;Max_cycle;Signal;HPM_P1;HPM_P2
2022/12/23 00:01:30;;;;;;;8.13;1.55;;;;;;;;;;5070381;28;20131;-79
2022/12/23 00:03:57;;;;;;;6.10;1.52;;;;;;;;;;5070728;28;20131;-78
2022/12/23 00:06:24;;;;;;;9.85;2.13;;;;;;;;;;5069079;28;20595;-78
2022/12/23 00:08:56;;;;;;;9.88;2.00;;;;;;;;;;5067799;28;20044;-78
2022/12/23 00:11:24;;;;;;;9.00;1.60;;;;;;;;;;5070473;28;20053;-78
2022/12/23 00:16:45;;;;;;;8.80;1.77;;;;;;;;;;5090464;28;20044;-79
2022/12/23 00:19:11;;;;;;;7.35;1.55;;;;;;;;;;5095422;28;20047;-78
2022/12/23 00:21:38;;;;;;;13.63;1.60;;;;;;;;;;5097363;28;20055;-78
2022/12/23 00:24:04;;;;;;;11.68;1.75;;;;;;;;;;5094203;28;20086;-79
2022/12/23 00:26:31;;;;;;;9.98;2.15;;;;;;;;;;5094510;28;20048;-79
2022/12/23 00:28:57;;;;;;;12.40;1.73;;;;;;;;;;5093262;28;20700;-78
2022/12/23 00:31:24;;;;;;;13.55;1.88;;;;;;;;;;5094808;28;20052;-78
2022/12/23 00:33:52;;;;;;;17.40;2.20;;;;;;;;;;5094522;28;20044;-79
2022/12/23 00:36:20;;;;;;;13.02;2.20;;;;;;;;;;5091857;28;20044;-78
2022/12/23 00:44:17;;;;;;;13.13;2.28;;;;;;;;;;5100217;28;20083;-79
2022/12/23 00:46:46;;;;;;;11.93;2.60;;;;;;;;;;5101852;28;20048;-78
2022/12/23 00:51:59;;;;;;;;;;;;;;;;;;5104053;28;20431;-79
2022/12/23 00:54:25;;;;;;;21.83;2.42;;;;;;;;;;5094974;28;20536;-78
2022/12/23 00:56:52;;;;;;;13.68;2.20;;;;;;;;;;5093781;28;20059;-77
2022/12/23 00:59:20;;;;;;;21.25;2.75;;;;;;;;;;5092301;28;20054;-78
2022/12/23 01:07:16;;;;;;;16.52;2.30;;;;;;;;;;5080459;28;20079;-79
2022/12/23 01:09:43;;;;;;;20.35;2.60;;;;;;;;;;5078989;28;20087;-80
2022/12/23 01:12:09;;;;;;;19.30;2.20;;;;;;;;;;5079448;28;20083;-79
2022/12/23 01:14:36;;;;;;;9.55;1.90;;;;;;;;;;5079135;28;20223;-80
2022/12/23 01:17:04;;;;;;;15.27;2.42;;;;;;;;;;5100727;28;20067;-79
2022/12/23 01:19:31;;;;;;;15.95;1.75;;;;;;;;;;5099942;28;20050;-80
2022/12/23 01:21:57;;;;;;;13.68;1.90;;;;;;;;;;5101092;28;20036;-79
2022/12/23 01:24:26;;;;;;;9.95;2.03;;;;;;;;;;5100432;28;20541;-80
2022/12/23 01:26:52;;;;;;;17.30;1.95;;;;;;;;;;5101370;28;20063;-79
2022/12/23 01:29:18;;;;;;;10.60;2.03;;;;;;;;;;5100354;28;20452;-79
2022/12/23 01:31:45;;;;;;;16.67;1.70;;;;;;;;;;5097070;28;20048;-77
2022/12/23 01:34:12;;;;;;;12.10;1.83;;;;;;;;;;5093480;28;20062;-77
2022/12/23 01:36:38;;;;;;;11.20;1.80;;;;;;;;;;5095647;28;20040;-78
2022/12/23 01:39:04;;;;;;;11.88;2.13;;;;;;;;;;5094546;28;20116;-79
2022/12/23 01:44:35;;;;;;;10.70;1.70;;;;;;;;;;5092473;28;20059;-78
2022/12/23 01:47:03;;;;;;;9.10;2.10;;;;;;;;;;5096643;28;20048;-78
2022/12/23 01:49:30;;;;;;;10.52;1.77;;;;;;;;;;5096456;28;20139;-78
2022/12/23 01:51:56;;;;;;;9.93;1.48;;;;;;;;;;5094592;28;20047;-78
2022/12/23 01:54:22;;;;;;;11.88;1.55;;;;;;;;;;5091393;28;20048;-78
2022/12/23 01:56:49;;;;;;;5.55;1.40;;;;;;;;;;5091775;28;20052;-78
2022/12/23 02:03:40;;;;;;;7.18;2.00;;;;;;;;;;5090200;28;20058;-79
2022/12/23 02:04:48;;;;;;;5.78;1.02;;;;;;;;;;5069566;28;20083;-78
2022/12/23 02:10:00;;;;;;;;;;;;;;;;;;5072125;28;20044;-78
2022/12/23 02:12:26;;;;;;;8.77;1.50;;;;;;;;;;5072671;28;20391;-76
2022/12/23 02:18:03;;;;;;;8.77;1.27;;;;;;;;;;5093520;28;20435;-79
2022/12/23 02:20:32;;;;;;;7.43;1.15;;;;;;;;;;5095798;28;20074;-80
2022/12/23 02:23:25;;;;;;;5.65;1.15;;;;;;;;;;5095376;28;20055;-79
2022/12/23 02:25:54;;;;;;;9.73;1.42;;;;;;;;;;5092843;28;20123;-76
2022/12/23 02:28:24;;;;;;;9.93;1.25;;;;;;;;;;5094438;28;20437;-77
2022/12/23 02:30:54;;;;;;;6.10;1.50;;;;;;;;;;5076420;28;20079;-80
2022/12/23 02:33:21;;;;;;;5.70;1.40;;;;;;;;;;5100862;28;20050;-79
2022/12/23 02:35:53;;;;;;;8.68;1.40;;;;;;;;;;5082877;28;20059;-79
2022/12/23 02:38:24;;;;;;;5.97;1.33;;;;;;;;;;5102483;28;20418;-79
2022/12/23 02:41:10;;;;;;;8.27;1.30;;;;;;;;;;5099917;28;20124;-79
2022/12/23 02:43:45;;;;;;;7.93;1.67;;;;;;;;;;5100674;28;20154;-79
2022/12/23 02:46:12;;;;;;;9.10;1.23;;;;;;;;;;5101214;28;20135;-79
2022/12/23 02:48:43;;;;;;;5.18;1.00;;;;;;;;;;5101287;28;20048;-79
2022/12/23 02:51:12;;;;;;;3.60;0.90;;;;;;;;;;5100787;28;20082;-79
2022/12/23 02:53:41;;;;;;;3.97;1.05;;;;;;;;;;5099945;28;20087;-77
2022/12/23 02:56:09;;;;;;;5.63;1.20;;;;;;;;;;5090420;28;20048;-78
2022/12/23 02:58:39;;;;;;;5.68;1.23;;;;;;;;;;5072709;28;20419;-77
2022/12/23 03:01:05;;;;;;;6.72;1.17;;;;;;;;;;5071398;28;20069;-78
2022/12/23 03:03:33;;;;;;;5.28;0.90;;;;;;;;;;5071026;28;20052;-78
2022/12/23 03:06:01;;;;;;;1.40;0.60;;;;;;;;;;5089999;28;20290;-79
2022/12/23 03:08:30;;;;;;;4.65;0.82;;;;;;;;;;5078609;28;20135;-78
2022/12/23 03:10:56;;;;;;;3.00;1.00;;;;;;;;;;5071271;28;20048;-79
2022/12/23 03:13:42;;;;;;;4.93;0.90;;;;;;;;;;5070460;28;20044;-77
2022/12/23 03:16:37;;;;;;;5.28;0.75;;;;;;;;;;5084707;28;20044;-78
2022/12/23 03:19:07;;;;;;;3.43;0.67;;;;;;;;;;5075358;28;20043;-78
2022/12/23 03:21:33;;;;;;;1.38;0.70;;;;;;;;;;5089511;28;20287;-79
2022/12/23 03:24:18;;;;;;;3.17;0.68;;;;;;;;;;5079677;28;20052;-75
2022/12/23 03:26:49;;;;;;;3.88;0.60;;;;;;;;;;5072328;28;20488;-80
2022/12/23 03:29:18;;;;;;;2.67;0.55;;;;;;;;;;5068749;28;20045;-78
2022/12/23 03:31:46;;;;;;;1.83;0.65;;;;;;;;;;5068850;28;20056;-78
2022/12/23 03:34:17;;;;;;;3.30;0.70;;;;;;;;;;5069324;28;20044;-78
2022/12/23 03:36:46;;;;;;;3.25;1.23;;;;;;;;;;5068067;28;20052;-77
2022/12/23 03:39:14;;;;;;;2.30;0.60;;;;;;;;;;5053157;28;20048;-78
2022/12/23 03:41:45;;;;;;;2.80;0.65;;;;;;;;;;5071950;28;20390;-79
2022/12/23 03:44:14;;;;;;;1.80;0.47;;;;;;;;;;5069171;28;20044;-78
2022/12/23 03:46:42;;;;;;;5.55;0.68;;;;;;;;;;5069854;28;20140;-78
2022/12/23 03:49:12;;;;;;;4.85;0.70;;;;;;;;;;5052140;28;20052;-78
2022/12/23 03:51:42;;;;;;;2.58;0.75;;;;;;;;;;5051570;28;20568;-77
2022/12/23 03:54:10;;;;;;;3.20;0.98;;;;;;;;;;5068874;28;20056;-78
2022/12/23 03:56:39;;;;;;;1.42;0.32;;;;;;;;;;5070671;28;20138;-78
2022/12/23 03:59:10;;;;;;;1.67;0.65;;;;;;;;;;5068008;28;20070;-77
2022/12/23 04:01:39;;;;;;;1.38;0.57;;;;;;;;;;5052802;28;20045;-78
2022/12/23 04:04:15;;;;;;;1.13;0.40;;;;;;;;;;5071651;28;20052;-78
2022/12/23 04:06:53;;;;;;;2.35;0.57;;;;;;;;;;5072785;28;20136;-79
2022/12/23 04:09:21;;;;;;;2.70;0.52;;;;;;;;;;5063897;28;20155;-78
2022/12/23 04:11:48;;;;;;;2.30;0.50;;;;;;;;;;5072421;28;20357;-79
2022/12/23 04:14:18;;;;;;;1.77;0.70;;;;;;;;;;5069719;28;20523;-79
2022/12/23 04:16:45;;;;;;;3.58;0.50;;;;;;;;;;5090214;28;20044;-78
2022/12/23 04:19:11;;;;;;;2.25;0.45;;;;;;;;;;5093845;28;20461;-79
2022/12/23 04:21:38;;;;;;;1.27;0.40;;;;;;;;;;5091174;28;20409;-78
2022/12/23 04:24:04;;;;;;;2.35;0.50;;;;;;;;;;5090898;28;20072;-77
2022/12/23 04:26:31;;;;;;;3.97;0.60;;;;;;;;;;5090889;28;20443;-79
2022/12/23 04:28:57;;;;;;;1.60;0.50;;;;;;;;;;5089777;28;20052;-79
2022/12/23 04:31:24;;;;;;;1.95;0.47;;;;;;;;;;5071457;28;20048;-78
2022/12/23 04:33:50;;;;;;;1.05;0.40;;;;;;;;;;5088448;28;20492;-78
2022/12/23 04:36:16;;;;;;;1.80;0.50;;;;;;;;;;5087255;28;20058;-77
2022/12/23 04:38:43;;;;;;;0.63;0.32;;;;;;;;;;5090745;28;20123;-78
2022/12/23 04:41:09;;;;;;;2.47;0.55;;;;;;;;;;5088340;28;20101;-78
2022/12/23 04:43:35;;;;;;;1.10;0.40;;;;;;;;;;5094683;28;20040;-80
2022/12/23 04:46:02;;;;;;;1.52;0.45;;;;;;;;;;5097098;28;20047;-80
2022/12/23 04:48:28;;;;;;;3.20;0.75;;;;;;;;;;5099238;28;20052;-79
2022/12/23 04:50:55;;;;;;;2.05;0.90;;;;;;;;;;5096617;28;20060;-80
2022/12/23 04:53:21;;;;;;;1.33;0.40;;;;;;;;;;5095844;28;20059;-79
2022/12/23 04:55:50;;;;;;;1.60;0.50;;;;;;;;;;5100112;28;20070;-79
2022/12/23 04:58:17;;;;;;;1.25;0.63;;;;;;;;;;5104127;28;20068;-79
2022/12/23 05:00:43;;;;;;;1.52;0.50;;;;;;;;;;5098430;28;20048;-80
2022/12/23 05:03:09;;;;;;;1.38;0.40;;;;;;;;;;5100570;28;20078;-79
2022/12/23 05:05:41;;;;;;;2.05;0.52;;;;;;;;;;5102013;28;20112;-78
2022/12/23 05:08:07;;;;;;;2.42;0.40;;;;;;;;;;5090138;28;20067;-79
2022/12/23 05:10:34;;;;;;;1.20;0.50;;;;;;;;;;5073370;28;20060;-76
2022/12/23 05:13:00;;;;;;;2.28;0.50;;;;;;;;;;5072979;28;20064;-78
2022/12/23 05:15:29;;;;;;;2.22;0.50;;;;;;;;;;5073709;28;20044;-79
2022/12/23 05:17:56;;;;;;;2.10;0.43;;;;;;;;;;5075177;28;20131;-79
2022/12/23 05:20:22;;;;;;;3.80;0.60;;;;;;;;;;5076464;28;20119;-78
2022/12/23 05:22:48;;;;;;;0.50;0.38;;;;;;;;;;5074139;28;20040;-78
2022/12/23 05:25:15;;;;;;;0.35;0.30;;;;;;;;;;5075893;28;20052;-79
2022/12/23 05:27:41;;;;;;;3.10;0.60;;;;;;;;;;5076836;28;20057;-79
2022/12/23 05:30:08;;;;;;;2.00;0.55;;;;;;;;;;5075890;28;20060;-78
2022/12/23 05:32:34;;;;;;;1.63;0.50;;;;;;;;;;5075373;28;20065;-79
2022/12/23 05:35:01;;;;;;;2.88;0.50;;;;;;;;;;5077556;28;20056;-79
2022/12/23 05:37:27;;;;;;;2.53;0.40;;;;;;;;;;5077366;28;20048;-79
2022/12/23 05:39:56;;;;;;;2.00;0.50;;;;;;;;;;5077437;28;20074;-79
2022/12/23 05:42:26;;;;;;;2.47;0.80;;;;;;;;;;5058222;28;20406;-79
2022/12/23 05:44:52;;;;;;;5.05;0.57;;;;;;;;;;5079224;28;20045;-80
2022/12/23 05:47:18;;;;;;;3.33;0.50;;;;;;;;;;5078616;28;20048;-79
2022/12/23 05:49:45;;;;;;;1.38;0.50;;;;;;;;;;5078692;28;20151;-79
2022/12/23 05:52:11;;;;;;;2.85;0.40;;;;;;;;;;5079236;28;20070;-79
2022/12/23 05:54:38;;;;;;;2.17;0.50;;;;;;;;;;5077593;28;20056;-77
2022/12/23 05:57:04;;;;;;;2.70;0.50;;;;;;;;;;5079350;28;20287;-80
2022/12/23 05:59:30;;;;;;;3.13;0.50;;;;;;;;;;5079442;28;20098;-80
2022/12/23 06:01:57;;;;;;;1.63;0.43;;;;;;;;;;5077803;28;20451;-80
2022/12/23 06:04:24;;;;;;;1.85;0.60;;;;;;;;;;5078215;28;20110;-79
2022/12/23 06:06:50;;;;;;;0.82;0.30;;;;;;;;;;5080371;28;20056;-80
2022/12/23 06:09:17;;;;;;;1.58;0.30;;;;;;;;;;5078728;28;20211;-79
2022/12/23 06:11:43;;;;;;;0.20;0.20;;;;;;;;;;5080729;28;20757;-78
2022/12/23 06:14:09;;;;;;;1.77;0.30;;;;;;;;;;5078012;28;20067;-80
2022/12/23 06:16:37;;;;;;;1.35;0.30;;;;;;;;;;5077553;28;20045;-80
2022/12/23 06:19:03;;;;;;;1.60;0.45;;;;;;;;;;5081112;28;20044;-80
2022/12/23 06:21:30;;;;;;;1.38;0.52;;;;;;;;;;5063368;28;20131;-81
2022/12/23 06:23:57;;;;;;;1.67;0.40;;;;;;;;;;5080185;28;20040;-76
2022/12/23 06:26:23;;;;;;;0.68;0.40;;;;;;;;;;5080211;28;20051;-80
2022/12/23 06:28:51;;;;;;;1.40;0.40;;;;;;;;;;5080650;28;20045;-80
2022/12/23 06:31:17;;;;;;;1.05;0.47;;;;;;;;;;5080952;28;20358;-80
2022/12/23 06:33:44;;;;;;;2.90;0.40;;;;;;;;;;5078336;28;20060;-80
2022/12/23 06:36:10;;;;;;;3.40;0.50;;;;;;;;;;5083163;28;20067;-80
2022/12/23 06:38:37;;;;;;;0.73;0.40;;;;;;;;;;5083113;28;20093;-81
2022/12/23 06:41:04;;;;;;;0.47;0.40;;;;;;;;;;5080618;28;20124;-82
2022/12/23 06:43:30;;;;;;;2.10;0.50;;;;;;;;;;5066301;28;20509;-80
2022/12/23 06:45:59;;;;;;;2.05;0.40;;;;;;;;;;5051379;28;20086;-81
2022/12/23 06:48:25;;;;;;;0.85;0.50;;;;;;;;;;5075762;28;20048;-81
2022/12/23 06:50:52;;;;;;;0.55;0.43;;;;;;;;;;5055572;28;20135;-80
2022/12/23 06:53:18;;;;;;;1.80;0.70;;;;;;;;;;5074001;28;20120;-80
2022/12/23 06:55:44;;;;;;;0.73;0.50;;;;;;;;;;5077785;28;20057;-81
2022/12/23 06:58:11;;;;;;;1.80;0.52;;;;;;;;;;5078811;28;20108;-82
2022/12/23 07:00:37;;;;;;;1.58;0.47;;;;;;;;;;5075508;28;20044;-80
2022/12/23 07:03:04;;;;;;;2.25;0.60;;;;;;;;;;5053385;28;20108;-79
2022/12/23 07:05:30;;;;;;;1.17;0.50;;;;;;;;;;5073970;28;20053;-80
2022/12/23 07:08:03;;;;;;;0.80;0.50;;;;;;;;;;5066187;28;20040;-79
2022/12/23 07:10:29;;;;;;;1.25;0.50;;;;;;;;;;5074015;28;20196;-80
2022/12/23 07:12:55;;;;;;;2.05;0.50;;;;;;;;;;5072617;28;20041;-79
2022/12/23 07:15:22;;;;;;;1.20;0.45;;;;;;;;;;5074988;28;20044;-79
2022/12/23 07:17:48;;;;;;;2.35;0.57;;;;;;;;;;5074285;28;20044;-80
2022/12/23 07:20:15;;;;;;;1.63;0.50;;;;;;;;;;5074364;28;20545;-79
2022/12/23 07:22:42;;;;;;;1.20;0.50;;;;;;;;;;5073490;28;20045;-79
2022/12/23 07:25:08;;;;;;;0.82;0.50;;;;;;;;;;5072751;28;20404;-80
2022/12/23 07:27:34;;;;;;;1.02;0.50;;;;;;;;;;5087652;28;20048;-81
2022/12/23 07:30:01;;;;;;;3.03;0.55;;;;;;;;;;5069780;28;20062;-81
2022/12/23 07:32:27;;;;;;;1.25;0.52;;;;;;;;;;5071863;28;20084;-75
2022/12/23 07:34:54;;;;;;;1.65;0.47;;;;;;;;;;5072603;28;20451;-76
2022/12/23 07:37:20;;;;;;;1.17;0.47;;;;;;;;;;5087936;28;20584;-76
2022/12/23 07:39:46;;;;;;;4.45;0.70;;;;;;;;;;5081690;28;20077;-76
2022/12/23 07:42:13;;;;;;;1.58;0.50;;;;;;;;;;5061744;28;20709;-75
2022/12/23 07:44:59;;;;;;;1.38;0.50;;;;;;;;;;5070463;28;20068;-78
2022/12/23 07:47:25;;;;;;;3.88;0.60;;;;;;;;;;5073046;28;20056;-78
2022/12/23 07:49:52;;;;;;;1.15;0.50;;;;;;;;;;5072786;28;20495;-79
2022/12/23 07:52:18;;;;;;;2.80;0.50;;;;;;;;;;5070771;28;20067;-78
2022/12/23 07:54:45;;;;;;;0.80;0.50;;;;;;;;;;5069126;28;20060;-79
2022/12/23 07:57:11;;;;;;;1.52;0.68;;;;;;;;;;5073889;28;20062;-80
2022/12/23 07:59:37;;;;;;;1.20;0.47;;;;;;;;;;5073153;28;20060;-79
2022/12/23 08:02:04;;;;;;;1.15;0.60;;;;;;;;;;5071714;28;20079;-79
2022/12/23 08:04:30;;;;;;;1.05;0.60;;;;;;;;;;5070942;28;20040;-80
2022/12/23 08:06:57;;;;;;;1.48;0.68;;;;;;;;;;5072912;28;20046;-79
2022/12/23 08:09:23;;;;;;;0.98;0.57;;;;;;;;;;5072022;28;20494;-79
2022/12/23 08:11:50;;;;;;;2.47;0.60;;;;;;;;;;5070113;28;20079;-78
2022/12/23 08:14:16;;;;;;;1.60;0.73;;;;;;;;;;5068702;28;20716;-80
2022/12/23 08:16:43;;;;;;;1.17;0.57;;;;;;;;;;5071772;28;20139;-79
2022/12/23 08:19:09;;;;;;;1.33;0.55;;;;;;;;;;5074363;28;20116;-79
2022/12/23 08:21:36;;;;;;;2.40;0.50;;;;;;;;;;5071896;28;20504;-79
2022/12/23 08:24:02;;;;;;;2.92;0.60;;;;;;;;;;5069552;28;20053;-79
2022/12/23 08:26:29;;;;;;;1.30;0.63;;;;;;;;;;5072519;28;20059;-78
2022/12/23 08:28:55;;;;;;;1.17;0.70;;;;;;;;;;5071316;28;20063;-78
2022/12/23 08:31:23;;;;;;;2.25;0.75;;;;;;;;;;5076502;28;20056;-78
2022/12/23 08:33:51;;;;;;;1.10;0.70;;;;;;;;;;5060128;28;20052;-79
2022/12/23 08:36:19;;;;;;;2.40;0.90;;;;;;;;;;5076333;28;20045;-79
2022/12/23 08:38:49;;;;;;;2.03;0.80;;;;;;;;;;5075915;28;20526;-79
2022/12/23 08:41:17;;;;;;;2.53;0.63;;;;;;;;;;5076372;28;20049;-79
2022/12/23 08:43:44;;;;;;;2.75;0.80;;;;;;;;;;5074271;28;20044;-79
2022/12/23 08:46:10;;;;;;;3.67;0.60;;;;;;;;;;5071152;28;20105;-78
2022/12/23 08:48:37;;;;;;;1.90;0.80;;;;;;;;;;5074706;28;20056;-79
2022/12/23 08:51:12;;;;;;;1.02;0.47;;;;;;;;;;5073954;28;20087;-79
2022/12/23 08:53:39;;;;;;;2.75;0.70;;;;;;;;;;5070996;28;20052;-79
2022/12/23 08:56:07;;;;;;;1.88;0.65;;;;;;;;;;5070904;28;20052;-78
2022/12/23 08:58:37;;;;;;;3.92;0.68;;;;;;;;;;5072451;28;20470;-79
2022/12/23 09:01:05;;;;;;;1.40;0.70;;;;;;;;;;5074457;28;20053;-78
2022/12/23 09:03:32;;;;;;;1.48;0.80;;;;;;;;;;5071272;28;20055;-78
2022/12/23 09:06:03;;;;;;;3.35;0.85;;;;;;;;;;5069620;28;20040;-78
2022/12/23 09:08:29;;;;;;;1.50;0.63;;;;;;;;;;5064455;28;20667;-78
2022/12/23 09:10:56;;;;;;;1.40;0.63;;;;;;;;;;5067838;28;20130;-79
2022/12/23 09:13:22;;;;;;;1.77;0.65;;;;;;;;;;5070774;28;20067;-78
2022/12/23 09:16:00;;;;;;;2.95;0.60;;;;;;;;;;5071231;28;20071;-79
2022/12/23 09:18:26;;;;;;;1.83;0.70;;;;;;;;;;5072088;28;20041;-79
2022/12/23 09:20:57;;;;;;;1.15;0.75;;;;;;;;;;5071820;28;20520;-81
2022/12/23 09:23:23;;;;;;;1.50;0.80;;;;;;;;;;5070851;28;20045;-80
2022/12/23 09:25:49;;;;;;;1.38;0.80;;;;;;;;;;5072960;28;20094;-78
2022/12/23 09:28:16;;;;;;;5.38;1.02;;;;;;;;;;5055715;28;20056;-78
2022/12/23 09:30:42;;;;;;;1.63;0.80;;;;;;;;;;5073339;28;20508;-79
2022/12/23 09:33:08;;;;;;;2.80;0.80;;;;;;;;;;5079927;28;20056;-79
2022/12/23 09:35:35;;;;;;;0.82;0.60;;;;;;;;;;5093276;28;20056;-78
2022/12/23 09:38:01;;;;;;;1.30;0.70;;;;;;;;;;5093101;28;20448;-78
2022/12/23 09:40:28;;;;;;;1.48;0.63;;;;;;;;;;5091707;28;20051;-79
2022/12/23 09:43:04;;;;;;;1.80;0.82;;;;;;;;;;5065915;28;20037;-76
2022/12/23 09:45:30;;;;;;;;;;;;;;;;;;5065439;28;20040;-78
2022/12/23 09:48:02;;;;;;;1.48;0.70;;;;;;;;;;5073314;28;20065;-79
2022/12/23 09:50:30;;;;;;;1.33;0.70;;;;;;;;;;5071849;28;20388;-79
2022/12/23 09:53:05;;;;;;;1.80;0.90;;;;;;;;;;5071449;28;20072;-79
2022/12/23 09:55:38;;;;;;;2.05;0.98;;;;;;;;;;5070071;28;20049;-79
2022/12/23 09:58:19;;;;;;;1.55;0.90;;;;;;;;;;5071321;28;20056;-79
2022/12/23 10:00:56;;;;;;;1.80;1.00;;;;;;;;;;5079151;28;20116;-79
2022/12/23 10:03:34;;;;;;;2.78;1.02;;;;;;;;;;5074724;28;20044;-79
2022/12/23 10:06:00;;;;;;;2.28;1.13;;;;;;;;;;5086048;28;20047;-79
2022/12/23 10:08:32;;;;;;;1.40;0.90;;;;;;;;;;5082043;28;20048;-79
2022/12/23 10:11:05;;;;;;;0.98;0.80;;;;;;;;;;5088486;28;20143;-78
2022/12/23 10:13:44;;;;;;;3.38;0.82;;;;;;;;;;5092621;28;20056;-79
2022/12/23 10:16:12;;;;;;;1.52;0.80;;;;;;;;;;5081266;28;20048;-79
2022/12/23 10:18:57;;;;;;;1.67;0.90;;;;;;;;;;5072196;28;20051;-78
2022/12/23 10:21:29;;;;;;;1.37;0.80;;;;;;;;;;5070459;28;20044;-79
2022/12/23 10:23:56;;;;;;;1.33;0.70;;;;;;;;;;5052935;28;20045;-78
2022/12/23 10:26:24;;;;;;;1.98;0.80;;;;;;;;;;5053663;28;20069;-79
2022/12/23 10:29:06;;;;;;;1.27;0.60;;;;;;;;;;5052832;28;20056;-78
2022/12/23 10:31:41;;;;;;;2.40;0.73;;;;;;;;;;5053416;28;20056;-76
2022/12/23 10:34:08;;;;;;;4.32;1.00;;;;;;;;;;5053042;28;20061;-80
2022/12/23 10:37:04;;;;;;;2.15;0.70;;;;;;;;;;5073496;28;20044;-80
2022/12/23 10:39:34;;;;;;;1.40;0.60;;;;;;;;;;5034884;28;20045;-78
2022/12/23 10:42:33;;;;;;;1.40;0.85;;;;;;;;;;5071589;28;20071;-76
2022/12/23 10:45:09;;;;;;;0.88;0.65;;;;;;;;;;4999386;28;20402;-78
2022/12/23 10:47:35;;;;;;;;;;;;;;;;;;5068233;28;20520;-79
2022/12/23 10:50:21;;;;;;;1.08;0.60;;;;;;;;;;5064838;28;20391;-76
2022/12/23 10:52:48;;;;;;;1.05;0.60;;;;;;;;;;5019251;28;20481;-78
2022/12/23 10:55:20;;;;;;;1.35;0.50;;;;;;;;;;5063618;28;20070;-77
2022/12/23 10:57:46;;;;;;;4.43;0.82;;;;;;;;;;5064455;28;20151;-78
2022/12/23 11:00:15;;;;;;;1.00;0.68;;;;;;;;;;5063909;28;20628;-78
2022/12/23 11:03:05;;;;;;;0.98;0.50;;;;;;;;;;5059181;28;20142;-78
2022/12/23 11:05:32;;;;;;;1.20;0.52;;;;;;;;;;5008270;28;20058;-77
2022/12/23 11:07:59;;;;;;;0.70;0.50;;;;;;;;;;5058273;28;20481;-78
2022/12/23 11:10:28;;;;;;;2.67;0.60;;;;;;;;;;5042772;28;20044;-77
2022/12/23 11:12:54;;;;;;;1.23;0.60;;;;;;;;;;5064862;28;20048;-80
2022/12/23 11:15:26;;;;;;;1.17;0.68;;;;;;;;;;5063116;28;20070;-79
2022/12/23 11:18:16;;;;;;;0.90;0.60;;;;;;;;;;5055126;28;20609;-78
2022/12/23 11:20:44;;;;;;;1.58;0.60;;;;;;;;;;5048535;28;20047;-80
2022/12/23 11:23:24;;;;;;;1.88;0.60;;;;;;;;;;5063752;28;20059;-78
2022/12/23 11:25:58;;;;;;;1.55;0.70;;;;;;;;;;5062317;28;20048;-77
2022/12/23 11:28:25;;;;;;;0.95;0.60;;;;;;;;;;5063375;28;20486;-77
2022/12/23 11:30:51;;;;;;;1.23;0.65;;;;;;;;;;5063763;28;20067;-77
2022/12/23 11:33:26;;;;;;;0.90;0.60;;;;;;;;;;5062670;28;20082;-79
2022/12/23 11:36:03;;;;;;;3.70;0.73;;;;;;;;;;5064559;28;20404;-78
2022/12/23 11:38:30;;;;;;;2.00;0.65;;;;;;;;;;5065236;28;20236;-78
2022/12/23 11:40:57;;;;;;;0.65;0.50;;;;;;;;;;5062149;28;20044;-78
2022/12/23 11:43:24;;;;;;;1.08;0.50;;;;;;;;;;5062370;28;20050;-77
2022/12/23 11:46:10;;;;;;;1.08;0.57;;;;;;;;;;5062428;28;20444;-77
2022/12/23 11:48:37;;;;;;;1.60;0.70;;;;;;;;;;5064602;28;20139;-76
2022/12/23 11:51:03;;;;;;;0.75;0.50;;;;;;;;;;5063925;28;20052;-77
2022/12/23 11:53:31;;;;;;;1.88;0.50;;;;;;;;;;5064729;28;20530;-77
2022/12/23 11:56:03;;;;;;;1.77;0.70;;;;;;;;;;5060697;28;20045;-77
2022/12/23 11:58:32;;;;;;;1.05;0.50;;;;;;;;;;5062350;28;20055;-78
2022/12/23 12:01:00;;;;;;;0.70;0.50;;;;;;;;;;5062387;28;20437;-77
2022/12/23 12:03:28;;;;;;;1.05;0.65;;;;;;;;;;5058480;28;20396;-77
2022/12/23 12:06:01;;;;;;;3.08;0.73;;;;;;;;;;5060159;28;20532;-77
2022/12/23 12:08:31;;;;;;;1.35;0.80;;;;;;;;;;5065598;28;20086;-77
2022/12/23 12:11:12;;;;;;;3.30;0.80;;;;;;;;;;5064494;28;20048;-78
2022/12/23 12:13:39;;;;;;;1.40;0.73;;;;;;;;;;5063204;28;20060;-77
2022/12/23 12:16:12;;;;;;;1.67;0.80;;;;;;;;;;5061793;28;20060;-76
2022/12/23 12:18:40;;;;;;;1.00;0.60;;;;;;;;;;5059655;28;20138;-78
2022/12/23 12:21:12;;;;;;;1.88;0.70;;;;;;;;;;5061098;28;20072;-78
2022/12/23 12:23:42;;;;;;;1.75;0.60;;;;;;;;;;5043297;28;20476;-79
2022/12/23 12:26:19;;;;;;;1.17;0.40;;;;;;;;;;5046112;28;20132;-78
2022/12/23 12:28:47;;;;;;;0.82;0.52;;;;;;;;;;5063001;28;20052;-78
2022/12/23 12:31:19;;;;;;;1.00;0.50;;;;;;;;;;5066354;28;20048;-77
2022/12/23 12:34:12;;;;;;;0.65;0.40;;;;;;;;;;5045023;28;20052;-77
2022/12/23 12:36:39;;;;;;;1.30;0.55;;;;;;;;;;5040450;28;20059;-78
2022/12/23 12:39:08;;;;;;;4.05;0.47;;;;;;;;;;5063362;28;20128;-78
2022/12/23 12:41:37;;;;;;;0.85;0.50;;;;;;;;;;5046234;28;20045;-79
2022/12/23 12:44:03;;;;;;;0.55;0.40;;;;;;;;;;5047421;28;20056;-77
2022/12/23 12:46:33;;;;;;;1.33;0.57;;;;;;;;;;5068960;28;20045;-79
2022/12/23 12:49:09;;;;;;;1.60;0.70;;;;;;;;;;5072268;28;20048;-79
2022/12/23 12:51:43;;;;;;;0.77;0.40;;;;;;;;;;5063426;28;20120;-78
2022/12/23 12:54:10;;;;;;;0.73;0.47;;;;;;;;;;5064732;28;20392;-79
2022/12/23 12:56:45;;;;;;;0.80;0.40;;;;;;;;;;5064984;28;20056;-78
2022/12/23 12:59:21;;;;;;;2.95;0.60;;;;;;;;;;5064290;28;20288;-78
2022/12/23 13:01:58;;;;;;;1.20;0.50;;;;;;;;;;5065157;28;20047;-77
2022/12/23 13:04:24;;;;;;;2.15;0.60;;;;;;;;;;5066367;28;20686;-79
2022/12/23 13:07:09;;;;;;;0.73;0.60;;;;;;;;;;5053902;28;20048;-76
2022/12/23 13:09:39;;;;;;;0.98;0.50;;;;;;;;;;5059308;28;20051;-79
2022/12/23 13:12:15;;;;;;;0.55;0.40;;;;;;;;;;5066538;28;20161;-78
2022/12/23 13:14:41;;;;;;;1.15;0.73;;;;;;;;;;5062037;28;20044;-78
2022/12/23 13:17:08;;;;;;;1.48;0.73;;;;;;;;;;5064395;28;20063;-79
2022/12/23 13:19:37;;;;;;;0.90;0.60;;;;;;;;;;5060455;28;20040;-78
2022/12/23 13:22:08;;;;;;;4.57;0.70;;;;;;;;;;5060808;28;20056;-77
2022/12/23 13:24:53;;;;;;;1.50;0.50;;;;;;;;;;5042159;28;20123;-77
2022/12/23 13:27:20;;;;;;;1.75;0.82;;;;;;;;;;5062618;28;20421;-77
2022/12/23 13:29:59;;;;;;;0.93;0.43;;;;;;;;;;5064059;28;20142;-77
2022/12/23 13:32:44;;;;;;;0.80;0.60;;;;;;;;;;5040215;28;20273;-78
2022/12/23 13:35:31;;;;;;;1.55;0.60;;;;;;;;;;5063600;28;20693;-77
2022/12/23 13:38:15;;;;;;;1.80;0.70;;;;;;;;;;5065011;28;20052;-77
2022/12/23 13:41:01;;;;;;;2.05;0.52;;;;;;;;;;5042229;28;20126;-78
2022/12/23 13:43:37;;;;;;;0.90;0.77;;;;;;;;;;5062820;28;20040;-77
2022/12/23 13:46:07;;;;;;;1.13;0.63;;;;;;;;;;5060599;28;20671;-76
2022/12/23 13:48:50;;;;;;;1.50;0.88;;;;;;;;;;5063117;28;20322;-78
2022/12/23 13:51:16;;;;;;;1.95;0.90;;;;;;;;;;5055367;28;20054;-79
2022/12/23 13:53:49;;;;;;;1.40;0.70;;;;;;;;;;5064611;28;20063;-77
2022/12/23 13:56:25;;;;;;;1.77;1.10;;;;;;;;;;5059715;28;20048;-78
2022/12/23 13:58:52;;;;;;;1.10;0.70;;;;;;;;;;5069905;28;20052;-77
2022/12/23 14:01:31;;;;;;;0.85;0.60;;;;;;;;;;5076058;28;20051;-78
2022/12/23 14:04:18;;;;;;;1.55;0.90;;;;;;;;;;5071004;28;20061;-77
2022/12/23 14:06:46;;;;;;;1.55;0.90;;;;;;;;;;5070186;28;20435;-77
2022/12/23 14:09:15;;;;;;;3.20;1.38;;;;;;;;;;5050730;28;20396;-79
2022/12/23 14:11:42;;;;;;;1.88;1.00;;;;;;;;;;5070239;28;20048;-78
2022/12/23 14:14:16;;;;;;;1.83;0.90;;;;;;;;;;5060593;28;20154;-77
2022/12/23 14:16:48;;;;;;;1.42;0.90;;;;;;;;;;5055288;28;20273;-77
2022/12/23 14:19:34;;;;;;;2.25;0.98;;;;;;;;;;5067516;28;20056;-77
2022/12/23 14:22:04;;;;;;;3.00;1.00;;;;;;;;;;5047623;28;20480;-75
2022/12/23 14:24:49;;;;;;;3.70;1.27;;;;;;;;;;5066355;28;20086;-78
2022/12/23 14:27:39;;;;;;;3.13;1.30;;;;;;;;;;5063407;28;20052;-77
2022/12/23 14:30:07;;;;;;;4.15;1.10;;;;;;;;;;5064851;28;20075;-77
2022/12/23 14:32:45;;;;;;;2.35;1.20;;;;;;;;;;5063722;28;20127;-77
2022/12/23 14:35:11;;;;;;;1.95;1.00;;;;;;;;;;5065489;28;20059;-77
2022/12/23 14:37:38;;;;;;;2.22;1.10;;;;;;;;;;5065381;28;20044;-77
2022/12/23 14:40:23;;;;;;;2.42;1.20;;;;;;;;;;5064793;28;20053;-77
2022/12/23 14:43:10;;;;;;;4.28;1.55;;;;;;;;;;5061040;28;20052;-74
2022/12/23 14:45:41;;;;;;;1.50;0.95;;;;;;;;;;5059638;28;20133;-76
2022/12/23 14:48:26;;;;;;;1.70;1.08;;;;;;;;;;5060590;28;20051;-78
2022/12/23 14:50:56;;;;;;;2.47;1.30;;;;;;;;;;5062147;28;20505;-75
2022/12/23 14:53:24;;;;;;;2.17;1.38;;;;;;;;;;5066764;28;20052;-76
2022/12/23 14:56:11;;;;;;;3.90;1.70;;;;;;;;;;5068363;28;20131;-77
2022/12/23 14:58:45;;;;;;;2.72;1.50;;;;;;;;;;5034826;28;20517;-77
2022/12/23 15:01:16;;;;;;;6.27;1.47;;;;;;;;;;5065412;28;20048;-77
2022/12/23 15:03:45;;;;;;;3.22;1.50;;;;;;;;;;5064368;28;20302;-77
2022/12/23 15:06:14;;;;;;;4.85;1.15;;;;;;;;;;5067581;28;20498;-78
2022/12/23 15:08:41;;;;;;;2.58;1.23;;;;;;;;;;5047587;28;20044;-78
2022/12/23 15:11:13;;;;;;;2.25;1.27;;;;;;;;;;5063105;28;20524;-78
2022/12/23 15:13:41;;;;;;;16.38;1.85;;;;;;;;;;5069832;28;20252;-78
2022/12/23 15:16:13;;;;;;;3.05;1.50;;;;;;;;;;5066302;28;20057;-78
2022/12/23 15:18:50;;;;;;;4.40;1.92;;;;;;;;;;5067812;28;20484;-79
2022/12/23 15:21:17;;;;;;;4.10;2.15;;;;;;;;;;5068511;28;20048;-78
2022/12/23 15:23:49;;;;;;;6.03;2.75;;;;;;;;;;5065400;28;20053;-79
2022/12/23 15:26:15;;;;;;;4.72;2.25;;;;;;;;;;5066788;28;20056;-78
2022/12/23 15:28:42;;;;;;;5.32;2.25;;;;;;;;;;5068531;28;20052;-78